sensor_id;sensor_type;location;lat;lon;timestamp;P1;durP1;ratioP1;P2;durP2;ratioP2
27925;SDS011;15267;47.838;12.128;2024-02-28T00:00:27;26.52;;;18.67;;
27925;SDS011;15267;47.838;12.128;2024-02-28T00:02:53;23.38;;;17.67;;
27925;SDS011;15267;47.838;12.128;2024-02-28T00:05:19;25.00;;;17.98;;
27925;SDS011;15267;47.838;12.128;2024-02-28T00:07:45;24.23;;;17.17;;
27925;SDS011;15267;47.838;12.128;2024-02-28T00:10:12;24.85;;;18.75;;
27925;SDS011;15267;47.838;12.128;2024-02-28T00:12:38;29.73;;;18.83;;
27925;SDS011;15267;47.838;12.128;2024-02-28T00:15:04;28.05;;;18.25;;
27925;SDS011;15267;47.838;12.128;2024-02-28T00:17:35;26.08;;;18.27;;
27925;SDS011;15267;47.838;12.128;2024-02-28T00:20:01;25.55;;;18.75;;
27925;SDS011;15267;47.838;12.128;2024-02-28T00:22:27;23.50;;;18.10;;
27925;SDS011;15267;47.838;12.128;2024-02-28T00:24:53;25.45;;;17.52;;
27925;SDS011;15267;47.838;12.128;2024-02-28T00:27:19;26.85;;;18.27;;
27925;SDS011;15267;47.838;12.128;2024-02-28T00:29:45;26.98;;;18.40;;
27925;SDS011;15267;47.838;12.128;2024-02-28T00:32:11;32.55;;;20.67;;
27925;SDS011;15267;47.838;12.128;2024-02-28T00:34:37;26.42;;;18.08;;
27925;SDS011;15267;47.838;12.128;2024-02-28T00:37:03;33.55;;;20.88;;
27925;SDS011;15267;47.838;12.128;2024-02-28T00:39:29;38.17;;;21.58;;
27925;SDS011;15267;47.838;12.128;2024-02-28T00:41:55;34.25;;;20.75;;
27925;SDS011;15267;47.838;12.128;2024-02-28T00:44:21;36.92;;;21.10;;
27925;SDS011;15267;47.838;12.128;2024-02-28T00:46:47;33.42;;;20.77;;
27925;SDS011;15267;47.838;12.128;2024-02-28T00:49:13;34.70;;;21.38;;
27925;SDS011;15267;47.838;12.128;2024-02-28T00:51:39;32.53;;;20.90;;
27925;SDS011;15267;47.838;12.128;2024-02-28T00:54:05;36.63;;;21.73;;
27925;SDS011;15267;47.838;12.128;2024-02-28T00:56:31;36.35;;;21.40;;
27925;SDS011;15267;47.838;12.128;2024-02-28T00:58:57;31.83;;;20.00;;
27925;SDS011;15267;47.838;12.128;2024-02-28T01:01:23;33.00;;;21.08;;
27925;SDS011;15267;47.838;12.128;2024-02-28T01:03:49;32.92;;;20.15;;
27925;SDS011;15267;47.838;12.128;2024-02-28T01:06:15;35.85;;;20.70;;
27925;SDS011;15267;47.838;12.128;2024-02-28T01:08:41;39.05;;;21.70;;
27925;SDS011;15267;47.838;12.128;2024-02-28T01:11:07;40.15;;;21.48;;
27925;SDS011;15267;47.838;12.128;2024-02-28T01:13:33;35.55;;;20.67;;
27925;SDS011;15267;47.838;12.128;2024-02-28T01:15:59;39.78;;;21.08;;
27925;SDS011;15267;47.838;12.128;2024-02-28T01:18:25;33.28;;;20.13;;
27925;SDS011;15267;47.838;12.128;2024-02-28T01:20:53;33.95;;;20.10;;
27925;SDS011;15267;47.838;12.128;2024-02-28T01:23:19;32.08;;;20.75;;
27925;SDS011;15267;47.838;12.128;2024-02-28T01:25:45;33.88;;;20.17;;
27925;SDS011;15267;47.838;12.128;2024-02-28T01:28:11;33.65;;;20.02;;
27925;SDS011;15267;47.838;12.128;2024-02-28T01:30:37;60.10;;;26.42;;
27925;SDS011;15267;47.838;12.128;2024-02-28T01:33:03;101.07;;;37.83;;
27925;SDS011;15267;47.838;12.128;2024-02-28T01:35:29;99.32;;;37.80;;
27925;SDS011;15267;47.838;12.128;2024-02-28T01:37:55;120.15;;;41.25;;
27925;SDS011;15267;47.838;12.128;2024-02-28T01:40:21;66.72;;;28.27;;
27925;SDS011;15267;47.838;12.128;2024-02-28T01:42:47;63.80;;;28.38;;
27925;SDS011;15267;47.838;12.128;2024-02-28T01:45:13;76.78;;;31.98;;
27925;SDS011;15267;47.838;12.128;2024-02-28T01:47:43;84.93;;;33.58;;
27925;SDS011;15267;47.838;12.128;2024-02-28T01:50:09;54.35;;;26.48;;
27925;SDS011;15267;47.838;12.128;2024-02-28T01:52:37;31.05;;;20.70;;
27925;SDS011;15267;47.838;12.128;2024-02-28T01:55:03;28.25;;;19.13;;
27925;SDS011;15267;47.838;12.128;2024-02-28T01:57:31;31.15;;;21.88;;
27925;SDS011;15267;47.838;12.128;2024-02-28T01:59:57;24.30;;;18.90;;
27925;SDS011;15267;47.838;12.128;2024-02-28T02:02:23;26.77;;;19.50;;
27925;SDS011;15267;47.838;12.128;2024-02-28T02:04:49;26.65;;;20.25;;
27925;SDS011;15267;47.838;12.128;2024-02-28T02:07:17;27.90;;;20.05;;
27925;SDS011;15267;47.838;12.128;2024-02-28T02:09:43;32.17;;;20.58;;
27925;SDS011;15267;47.838;12.128;2024-02-28T02:12:09;27.75;;;19.92;;
27925;SDS011;15267;47.838;12.128;2024-02-28T02:14:35;30.10;;;20.63;;
27925;SDS011;15267;47.838;12.128;2024-02-28T02:17:01;29.17;;;20.83;;
27925;SDS011;15267;47.838;12.128;2024-02-28T02:19:27;28.77;;;20.58;;
27925;SDS011;15267;47.838;12.128;2024-02-28T02:21:53;33.80;;;20.65;;
27925;SDS011;15267;47.838;12.128;2024-02-28T02:24:21;31.42;;;22.88;;
27925;SDS011;15267;47.838;12.128;2024-02-28T02:26:47;31.55;;;21.67;;
27925;SDS011;15267;47.838;12.128;2024-02-28T02:29:16;29.58;;;21.98;;
27925;SDS011;15267;47.838;12.128;2024-02-28T02:31:42;37.25;;;24.67;;
27925;SDS011;15267;47.838;12.128;2024-02-28T02:34:08;34.30;;;23.13;;
27925;SDS011;15267;47.838;12.128;2024-02-28T02:36:34;31.38;;;22.13;;
27925;SDS011;15267;47.838;12.128;2024-02-28T02:39:00;39.20;;;25.15;;
27925;SDS011;15267;47.838;12.128;2024-02-28T02:41:26;27.90;;;21.05;;
27925;SDS011;15267;47.838;12.128;2024-02-28T02:43:52;31.63;;;21.50;;
27925;SDS011;15267;47.838;12.128;2024-02-28T02:46:18;30.15;;;21.92;;
27925;SDS011;15267;47.838;12.128;2024-02-28T02:48:43;32.17;;;21.52;;
27925;SDS011;15267;47.838;12.128;2024-02-28T02:51:09;28.75;;;20.90;;
27925;SDS011;15267;47.838;12.128;2024-02-28T02:53:35;27.60;;;20.02;;
27925;SDS011;15267;47.838;12.128;2024-02-28T02:56:03;32.10;;;21.27;;
27925;SDS011;15267;47.838;12.128;2024-02-28T02:58:29;29.58;;;21.30;;
27925;SDS011;15267;47.838;12.128;2024-02-28T03:00:55;26.52;;;20.50;;
27925;SDS011;15267;47.838;12.128;2024-02-28T03:03:21;30.27;;;22.02;;
27925;SDS011;15267;47.838;12.128;2024-02-28T03:05:47;32.53;;;21.35;;
27925;SDS011;15267;47.838;12.128;2024-02-28T03:08:13;34.28;;;23.65;;
27925;SDS011;15267;47.838;12.128;2024-02-28T03:10:39;27.23;;;20.08;;
27925;SDS011;15267;47.838;12.128;2024-02-28T03:13:05;29.10;;;20.48;;
27925;SDS011;15267;47.838;12.128;2024-02-28T03:15:32;33.80;;;21.63;;
27925;SDS011;15267;47.838;12.128;2024-02-28T03:17:58;36.40;;;24.00;;
27925;SDS011;15267;47.838;12.128;2024-02-28T03:20:23;38.83;;;25.10;;
27925;SDS011;15267;47.838;12.128;2024-02-28T03:22:50;31.55;;;21.73;;
27925;SDS011;15267;47.838;12.128;2024-02-28T03:25:16;34.00;;;24.27;;
27925;SDS011;15267;47.838;12.128;2024-02-28T03:27:42;30.23;;;21.70;;
27925;SDS011;15267;47.838;12.128;2024-02-28T03:30:08;28.20;;;21.05;;
27925;SDS011;15267;47.838;12.128;2024-02-28T03:32:34;31.05;;;22.70;;
27925;SDS011;15267;47.838;12.128;2024-02-28T03:35:00;29.20;;;21.58;;
27925;SDS011;15267;47.838;12.128;2024-02-28T03:37:26;30.23;;;22.15;;
27925;SDS011;15267;47.838;12.128;2024-02-28T03:39:52;31.35;;;21.65;;
27925;SDS011;15267;47.838;12.128;2024-02-28T03:42:18;34.53;;;22.63;;
27925;SDS011;15267;47.838;12.128;2024-02-28T03:44:44;37.35;;;22.70;;
27925;SDS011;15267;47.838;12.128;2024-02-28T03:47:10;32.78;;;22.75;;
27925;SDS011;15267;47.838;12.128;2024-02-28T03:49:36;27.75;;;20.83;;
27925;SDS011;15267;47.838;12.128;2024-02-28T03:52:02;30.45;;;21.27;;
27925;SDS011;15267;47.838;12.128;2024-02-28T03:54:31;27.17;;;20.83;;
27925;SDS011;15267;47.838;12.128;2024-02-28T03:56:56;30.35;;;21.13;;
27925;SDS011;15267;47.838;12.128;2024-02-28T03:59:24;28.98;;;20.58;;
27925;SDS011;15267;47.838;12.128;2024-02-28T04:01:50;31.23;;;20.83;;
27925;SDS011;15267;47.838;12.128;2024-02-28T04:04:16;27.10;;;20.60;;
27925;SDS011;15267;47.838;12.128;2024-02-28T04:06:42;29.55;;;20.92;;
27925;SDS011;15267;47.838;12.128;2024-02-28T04:09:08;30.23;;;20.80;;
27925;SDS011;15267;47.838;12.128;2024-02-28T04:11:34;29.20;;;20.70;;
27925;SDS011;15267;47.838;12.128;2024-02-28T04:13:59;28.92;;;20.98;;
27925;SDS011;15267;47.838;12.128;2024-02-28T04:16:25;26.98;;;19.90;;
27925;SDS011;15267;47.838;12.128;2024-02-28T04:18:51;28.52;;;20.38;;
27925;SDS011;15267;47.838;12.128;2024-02-28T04:21:17;30.52;;;20.10;;
27925;SDS011;15267;47.838;12.128;2024-02-28T04:23:43;27.25;;;20.83;;
27925;SDS011;15267;47.838;12.128;2024-02-28T04:26:09;29.35;;;20.70;;
27925;SDS011;15267;47.838;12.128;2024-02-28T04:28:35;29.77;;;20.35;;
27925;SDS011;15267;47.838;12.128;2024-02-28T04:31:01;27.52;;;20.55;;
27925;SDS011;15267;47.838;12.128;2024-02-28T04:33:27;31.95;;;22.33;;
27925;SDS011;15267;47.838;12.128;2024-02-28T04:35:53;28.70;;;21.15;;
27925;SDS011;15267;47.838;12.128;2024-02-28T04:38:19;29.02;;;21.77;;
27925;SDS011;15267;47.838;12.128;2024-02-28T04:40:45;27.30;;;20.83;;
27925;SDS011;15267;47.838;12.128;2024-02-28T04:43:11;28.23;;;20.55;;
27925;SDS011;15267;47.838;12.128;2024-02-28T04:45:37;27.77;;;19.88;;
27925;SDS011;15267;47.838;12.128;2024-02-28T04:48:03;29.13;;;21.73;;
27925;SDS011;15267;47.838;12.128;2024-02-28T04:50:29;26.75;;;20.88;;
27925;SDS011;15267;47.838;12.128;2024-02-28T04:52:55;30.30;;;21.70;;
27925;SDS011;15267;47.838;12.128;2024-02-28T04:55:21;28.38;;;21.33;;
27925;SDS011;15267;47.838;12.128;2024-02-28T04:57:47;29.15;;;20.95;;
27925;SDS011;15267;47.838;12.128;2024-02-28T05:00:13;28.38;;;21.05;;
27925;SDS011;15267;47.838;12.128;2024-02-28T05:02:39;30.55;;;21.40;;
27925;SDS011;15267;47.838;12.128;2024-02-28T05:05:05;31.90;;;21.80;;
27925;SDS011;15267;47.838;12.128;2024-02-28T05:07:31;29.63;;;21.63;;
27925;SDS011;15267;47.838;12.128;2024-02-28T05:09:57;30.77;;;20.13;;
27925;SDS011;15267;47.838;12.128;2024-02-28T05:12:23;28.15;;;21.30;;
27925;SDS011;15267;47.838;12.128;2024-02-28T05:14:49;34.65;;;20.52;;
27925;SDS011;15267;47.838;12.128;2024-02-28T05:17:15;25.67;;;19.70;;
27925;SDS011;15267;47.838;12.128;2024-02-28T05:19:42;24.67;;;19.15;;
27925;SDS011;15267;47.838;12.128;2024-02-28T05:22:08;27.08;;;20.65;;
27925;SDS011;15267;47.838;12.128;2024-02-28T05:24:36;24.75;;;19.35;;
27925;SDS011;15267;47.838;12.128;2024-02-28T05:27:02;23.55;;;19.55;;
27925;SDS011;15267;47.838;12.128;2024-02-28T05:29:28;27.23;;;20.70;;
27925;SDS011;15267;47.838;12.128;2024-02-28T05:31:54;28.50;;;21.27;;
27925;SDS011;15267;47.838;12.128;2024-02-28T05:34:20;26.42;;;19.17;;
27925;SDS011;15267;47.838;12.128;2024-02-28T05:36:45;28.00;;;20.02;;
27925;SDS011;15267;47.838;12.128;2024-02-28T05:39:11;27.38;;;19.48;;
27925;SDS011;15267;47.838;12.128;2024-02-28T05:41:37;26.20;;;20.50;;
27925;SDS011;15267;47.838;12.128;2024-02-28T05:44:03;26.17;;;19.17;;
27925;SDS011;15267;47.838;12.128;2024-02-28T05:46:29;25.08;;;18.77;;
27925;SDS011;15267;47.838;12.128;2024-02-28T05:48:55;25.60;;;18.95;;
27925;SDS011;15267;47.838;12.128;2024-02-28T05:51:21;28.02;;;19.95;;
27925;SDS011;15267;47.838;12.128;2024-02-28T05:53:47;29.30;;;19.85;;
27925;SDS011;15267;47.838;12.128;2024-02-28T05:56:13;28.02;;;20.27;;
27925;SDS011;15267;47.838;12.128;2024-02-28T05:58:40;27.00;;;20.48;;
27925;SDS011;15267;47.838;12.128;2024-02-28T06:01:06;26.65;;;20.50;;
27925;SDS011;15267;47.838;12.128;2024-02-28T06:03:33;27.95;;;21.08;;
27925;SDS011;15267;47.838;12.128;2024-02-28T06:05:59;27.58;;;20.90;;
27925;SDS011;15267;47.838;12.128;2024-02-28T06:08:25;29.55;;;21.25;;
27925;SDS011;15267;47.838;12.128;2024-02-28T06:10:51;29.30;;;22.48;;
27925;SDS011;15267;47.838;12.128;2024-02-28T06:13:17;29.73;;;21.85;;
27925;SDS011;15267;47.838;12.128;2024-02-28T06:15:43;29.92;;;21.38;;
27925;SDS011;15267;47.838;12.128;2024-02-28T06:18:09;29.88;;;20.92;;
27925;SDS011;15267;47.838;12.128;2024-02-28T06:20:36;28.27;;;21.15;;
27925;SDS011;15267;47.838;12.128;2024-02-28T06:23:02;31.02;;;21.17;;
27925;SDS011;15267;47.838;12.128;2024-02-28T06:25:28;28.42;;;21.20;;
27925;SDS011;15267;47.838;12.128;2024-02-28T06:27:54;29.80;;;21.88;;
27925;SDS011;15267;47.838;12.128;2024-02-28T06:30:20;31.05;;;21.77;;
27925;SDS011;15267;47.838;12.128;2024-02-28T06:32:46;27.90;;;21.23;;
27925;SDS011;15267;47.838;12.128;2024-02-28T06:35:12;31.63;;;23.30;;
27925;SDS011;15267;47.838;12.128;2024-02-28T06:37:38;29.30;;;22.23;;
27925;SDS011;15267;47.838;12.128;2024-02-28T06:40:04;30.90;;;21.98;;
27925;SDS011;15267;47.838;12.128;2024-02-28T06:42:30;33.70;;;22.65;;
27925;SDS011;15267;47.838;12.128;2024-02-28T06:44:56;33.15;;;22.77;;
27925;SDS011;15267;47.838;12.128;2024-02-28T06:47:22;30.50;;;22.45;;
27925;SDS011;15267;47.838;12.128;2024-02-28T06:49:48;30.17;;;22.40;;
27925;SDS011;15267;47.838;12.128;2024-02-28T06:52:14;34.25;;;24.15;;
27925;SDS011;15267;47.838;12.128;2024-02-28T06:54:40;34.35;;;25.08;;
27925;SDS011;15267;47.838;12.128;2024-02-28T06:57:06;30.83;;;23.42;;
27925;SDS011;15267;47.838;12.128;2024-02-28T06:59:32;30.88;;;21.60;;
27925;SDS011;15267;47.838;12.128;2024-02-28T07:01:58;27.70;;;20.98;;
27925;SDS011;15267;47.838;12.128;2024-02-28T07:04:24;29.80;;;22.00;;
27925;SDS011;15267;47.838;12.128;2024-02-28T07:06:50;31.98;;;22.02;;
27925;SDS011;15267;47.838;12.128;2024-02-28T07:09:16;33.15;;;22.38;;
27925;SDS011;15267;47.838;12.128;2024-02-28T07:11:42;32.55;;;23.13;;
27925;SDS011;15267;47.838;12.128;2024-02-28T07:14:08;32.10;;;22.50;;
27925;SDS011;15267;47.838;12.128;2024-02-28T07:16:33;29.23;;;19.90;;
27925;SDS011;15267;47.838;12.128;2024-02-28T07:19:00;38.28;;;23.67;;
27925;SDS011;15267;47.838;12.128;2024-02-28T07:21:26;36.15;;;22.17;;
27925;SDS011;15267;47.838;12.128;2024-02-28T07:23:52;35.22;;;24.88;;
27925;SDS011;15267;47.838;12.128;2024-02-28T07:26:19;36.28;;;26.13;;
27925;SDS011;15267;47.838;12.128;2024-02-28T07:28:45;35.17;;;25.45;;
27925;SDS011;15267;47.838;12.128;2024-02-28T07:31:17;34.45;;;24.83;;
27925;SDS011;15267;47.838;12.128;2024-02-28T07:33:43;32.45;;;23.58;;
27925;SDS011;15267;47.838;12.128;2024-02-28T07:36:09;33.05;;;24.25;;
27925;SDS011;15267;47.838;12.128;2024-02-28T07:38:35;31.75;;;22.20;;
27925;SDS011;15267;47.838;12.128;2024-02-28T07:41:01;35.38;;;25.23;;
27925;SDS011;15267;47.838;12.128;2024-02-28T07:43:27;33.97;;;24.90;;
27925;SDS011;15267;47.838;12.128;2024-02-28T07:45:53;33.88;;;23.67;;
27925;SDS011;15267;47.838;12.128;2024-02-28T07:48:19;32.08;;;23.83;;
27925;SDS011;15267;47.838;12.128;2024-02-28T07:50:45;35.08;;;24.00;;
27925;SDS011;15267;47.838;12.128;2024-02-28T07:53:12;32.28;;;24.98;;
27925;SDS011;15267;47.838;12.128;2024-02-28T07:55:38;32.92;;;25.08;;
27925;SDS011;15267;47.838;12.128;2024-02-28T07:58:04;34.05;;;26.17;;
27925;SDS011;15267;47.838;12.128;2024-02-28T08:00:31;34.42;;;25.10;;
27925;SDS011;15267;47.838;12.128;2024-02-28T08:02:58;32.17;;;23.98;;
27925;SDS011;15267;47.838;12.128;2024-02-28T08:05:24;33.13;;;23.75;;
27925;SDS011;15267;47.838;12.128;2024-02-28T08:07:50;33.40;;;23.77;;
27925;SDS011;15267;47.838;12.128;2024-02-28T08:10:17;34.78;;;25.52;;
27925;SDS011;15267;47.838;12.128;2024-02-28T08:12:43;36.95;;;24.80;;
27925;SDS011;15267;47.838;12.128;2024-02-28T08:15:09;33.72;;;25.35;;
27925;SDS011;15267;47.838;12.128;2024-02-28T08:17:35;33.35;;;25.23;;
27925;SDS011;15267;47.838;12.128;2024-02-28T08:20:02;31.65;;;23.67;;
27925;SDS011;15267;47.838;12.128;2024-02-28T08:22:29;35.83;;;25.60;;
27925;SDS011;15267;47.838;12.128;2024-02-28T08:24:55;32.40;;;24.95;;
27925;SDS011;15267;47.838;12.128;2024-02-28T08:27:21;35.42;;;25.00;;
27925;SDS011;15267;47.838;12.128;2024-02-28T08:29:48;37.47;;;26.23;;
27925;SDS011;15267;47.838;12.128;2024-02-28T08:32:14;36.22;;;25.77;;
27925;SDS011;15267;47.838;12.128;2024-02-28T08:34:43;41.05;;;27.27;;
27925;SDS011;15267;47.838;12.128;2024-02-28T08:37:10;39.58;;;27.23;;
27925;SDS011;15267;47.838;12.128;2024-02-28T08:39:36;37.53;;;26.63;;
27925;SDS011;15267;47.838;12.128;2024-02-28T08:42:02;45.40;;;29.60;;
27925;SDS011;15267;47.838;12.128;2024-02-28T08:44:27;45.22;;;29.70;;
27925;SDS011;15267;47.838;12.128;2024-02-28T08:46:53;49.53;;;33.05;;
27925;SDS011;15267;47.838;12.128;2024-02-28T08:49:19;59.28;;;37.65;;
27925;SDS011;15267;47.838;12.128;2024-02-28T08:51:45;73.93;;;44.60;;
27925;SDS011;15267;47.838;12.128;2024-02-28T08:54:11;61.78;;;39.38;;
27925;SDS011;15267;47.838;12.128;2024-02-28T08:56:37;49.00;;;32.00;;
27925;SDS011;15267;47.838;12.128;2024-02-28T08:59:04;45.90;;;31.15;;
27925;SDS011;15267;47.838;12.128;2024-02-28T09:01:30;48.42;;;32.70;;
27925;SDS011;15267;47.838;12.128;2024-02-28T09:03:55;57.35;;;36.22;;
27925;SDS011;15267;47.838;12.128;2024-02-28T09:06:21;46.30;;;33.15;;
27925;SDS011;15267;47.838;12.128;2024-02-28T09:08:47;46.03;;;31.48;;
27925;SDS011;15267;47.838;12.128;2024-02-28T09:11:13;46.38;;;31.27;;
27925;SDS011;15267;47.838;12.128;2024-02-28T09:13:39;47.22;;;31.42;;
27925;SDS011;15267;47.838;12.128;2024-02-28T09:16:05;43.42;;;29.55;;
27925;SDS011;15267;47.838;12.128;2024-02-28T09:18:31;43.30;;;31.27;;
27925;SDS011;15267;47.838;12.128;2024-02-28T09:20:58;48.38;;;32.40;;
27925;SDS011;15267;47.838;12.128;2024-02-28T09:23:24;48.58;;;31.38;;
27925;SDS011;15267;47.838;12.128;2024-02-28T09:25:50;48.83;;;32.63;;
27925;SDS011;15267;47.838;12.128;2024-02-28T09:28:16;54.97;;;36.10;;
27925;SDS011;15267;47.838;12.128;2024-02-28T09:30:42;55.22;;;35.20;;
27925;SDS011;15267;47.838;12.128;2024-02-28T09:33:08;56.00;;;37.35;;
27925;SDS011;15267;47.838;12.128;2024-02-28T09:35:35;62.67;;;39.78;;
27925;SDS011;15267;47.838;12.128;2024-02-28T09:38:01;57.85;;;37.55;;
27925;SDS011;15267;47.838;12.128;2024-02-28T09:40:27;62.38;;;38.95;;
27925;SDS011;15267;47.838;12.128;2024-02-28T09:42:54;66.85;;;38.65;;
27925;SDS011;15267;47.838;12.128;2024-02-28T09:45:22;65.53;;;40.97;;
27925;SDS011;15267;47.838;12.128;2024-02-28T09:47:49;66.60;;;39.38;;
27925;SDS011;15267;47.838;12.128;2024-02-28T09:50:15;61.17;;;38.58;;
27925;SDS011;15267;47.838;12.128;2024-02-28T09:52:41;65.30;;;38.17;;
27925;SDS011;15267;47.838;12.128;2024-02-28T09:55:07;62.08;;;39.38;;
27925;SDS011;15267;47.838;12.128;2024-02-28T09:57:33;63.88;;;39.75;;
27925;SDS011;15267;47.838;12.128;2024-02-28T10:00:00;66.88;;;42.92;;
27925;SDS011;15267;47.838;12.128;2024-02-28T10:02:26;65.63;;;40.67;;
27925;SDS011;15267;47.838;12.128;2024-02-28T10:04:53;75.57;;;48.00;;
27925;SDS011;15267;47.838;12.128;2024-02-28T10:07:23;74.82;;;49.22;;
27925;SDS011;15267;47.838;12.128;2024-02-28T10:09:49;120.90;;;74.63;;
27925;SDS011;15267;47.838;12.128;2024-02-28T10:12:15;120.93;;;75.00;;
27925;SDS011;15267;47.838;12.128;2024-02-28T10:14:41;87.97;;;54.00;;
27925;SDS011;15267;47.838;12.128;2024-02-28T10:17:07;79.75;;;48.33;;
27925;SDS011;15267;47.838;12.128;2024-02-28T10:19:33;81.32;;;47.95;;
27925;SDS011;15267;47.838;12.128;2024-02-28T10:21:59;88.78;;;55.10;;
27925;SDS011;15267;47.838;12.128;2024-02-28T10:24:25;77.57;;;47.33;;
27925;SDS011;15267;47.838;12.128;2024-02-28T10:26:51;65.13;;;39.92;;
27925;SDS011;15267;47.838;12.128;2024-02-28T10:29:20;59.58;;;38.20;;
27925;SDS011;15267;47.838;12.128;2024-02-28T10:31:46;62.75;;;38.70;;
27925;SDS011;15267;47.838;12.128;2024-02-28T10:34:13;59.42;;;39.40;;
27925;SDS011;15267;47.838;12.128;2024-02-28T10:36:40;62.20;;;39.95;;
27925;SDS011;15267;47.838;12.128;2024-02-28T10:39:07;62.53;;;39.53;;
27925;SDS011;15267;47.838;12.128;2024-02-28T10:41:34;64.35;;;39.53;;
27925;SDS011;15267;47.838;12.128;2024-02-28T10:44:01;61.10;;;38.63;;
27925;SDS011;15267;47.838;12.128;2024-02-28T10:46:27;60.00;;;37.67;;
27925;SDS011;15267;47.838;12.128;2024-02-28T10:48:53;62.35;;;37.95;;
27925;SDS011;15267;47.838;12.128;2024-02-28T10:51:20;55.80;;;38.05;;
27925;SDS011;15267;47.838;12.128;2024-02-28T10:53:49;61.97;;;38.45;;
27925;SDS011;15267;47.838;12.128;2024-02-28T10:56:16;61.20;;;37.60;;
27925;SDS011;15267;47.838;12.128;2024-02-28T10:58:51;61.90;;;38.25;;
27925;SDS011;15267;47.838;12.128;2024-02-28T11:01:17;59.42;;;38.25;;
27925;SDS011;15267;47.838;12.128;2024-02-28T11:03:44;54.50;;;35.70;;
27925;SDS011;15267;47.838;12.128;2024-02-28T11:06:16;57.25;;;36.63;;
27925;SDS011;15267;47.838;12.128;2024-02-28T11:11:09;61.92;;;36.15;;
27925;SDS011;15267;47.838;12.128;2024-02-28T11:13:36;61.00;;;37.10;;
27925;SDS011;15267;47.838;12.128;2024-02-28T11:16:08;54.75;;;36.15;;
27925;SDS011;15267;47.838;12.128;2024-02-28T11:18:34;55.80;;;34.42;;
27925;SDS011;15267;47.838;12.128;2024-02-28T11:21:00;53.75;;;35.25;;
27925;SDS011;15267;47.838;12.128;2024-02-28T11:23:35;56.83;;;35.83;;
27925;SDS011;15267;47.838;12.128;2024-02-28T11:28:28;52.25;;;34.05;;
27925;SDS011;15267;47.838;12.128;2024-02-28T11:30:54;54.72;;;36.80;;
27925;SDS011;15267;47.838;12.128;2024-02-28T11:33:20;55.55;;;38.13;;
27925;SDS011;15267;47.838;12.128;2024-02-28T11:35:54;54.08;;;35.50;;
27925;SDS011;15267;47.838;12.128;2024-02-28T11:38:20;54.60;;;37.88;;
27925;SDS011;15267;47.838;12.128;2024-02-28T11:40:49;60.97;;;39.42;;
27925;SDS011;15267;47.838;12.128;2024-02-28T11:43:16;57.60;;;38.08;;
27925;SDS011;15267;47.838;12.128;2024-02-28T11:45:43;56.92;;;37.85;;
27925;SDS011;15267;47.838;12.128;2024-02-28T11:48:11;55.70;;;39.13;;
27925;SDS011;15267;47.838;12.128;2024-02-28T11:50:37;63.17;;;40.75;;
27925;SDS011;15267;47.838;12.128;2024-02-28T11:53:03;61.97;;;39.67;;
27925;SDS011;15267;47.838;12.128;2024-02-28T11:55:30;56.55;;;37.78;;
27925;SDS011;15267;47.838;12.128;2024-02-28T11:57:56;56.67;;;38.80;;
27925;SDS011;15267;47.838;12.128;2024-02-28T12:00:22;58.17;;;39.97;;
27925;SDS011;15267;47.838;12.128;2024-02-28T12:02:48;60.70;;;41.05;;
27925;SDS011;15267;47.838;12.128;2024-02-28T12:05:14;56.65;;;38.60;;
27925;SDS011;15267;47.838;12.128;2024-02-28T12:07:41;56.20;;;38.47;;
27925;SDS011;15267;47.838;12.128;2024-02-28T12:10:08;55.45;;;38.97;;
27925;SDS011;15267;47.838;12.128;2024-02-28T12:12:34;56.83;;;38.13;;
27925;SDS011;15267;47.838;12.128;2024-02-28T12:15:00;54.28;;;37.53;;
27925;SDS011;15267;47.838;12.128;2024-02-28T12:17:30;58.38;;;38.97;;
27925;SDS011;15267;47.838;12.128;2024-02-28T12:19:56;56.45;;;39.08;;
27925;SDS011;15267;47.838;12.128;2024-02-28T12:22:22;61.60;;;41.30;;
27925;SDS011;15267;47.838;12.128;2024-02-28T12:24:47;53.53;;;36.92;;
27925;SDS011;15267;47.838;12.128;2024-02-28T12:27:13;55.42;;;37.38;;
27925;SDS011;15267;47.838;12.128;2024-02-28T12:29:39;55.60;;;37.28;;
27925;SDS011;15267;47.838;12.128;2024-02-28T12:32:05;54.63;;;36.05;;
27925;SDS011;15267;47.838;12.128;2024-02-28T12:34:33;56.97;;;38.78;;
27925;SDS011;15267;47.838;12.128;2024-02-28T12:36:59;52.95;;;35.92;;
27925;SDS011;15267;47.838;12.128;2024-02-28T12:39:25;55.50;;;37.08;;
27925;SDS011;15267;47.838;12.128;2024-02-28T12:41:51;56.92;;;38.47;;
27925;SDS011;15267;47.838;12.128;2024-02-28T12:44:17;54.42;;;36.38;;
27925;SDS011;15267;47.838;12.128;2024-02-28T12:46:43;53.95;;;36.78;;
27925;SDS011;15267;47.838;12.128;2024-02-28T12:49:09;53.65;;;36.60;;
27925;SDS011;15267;47.838;12.128;2024-02-28T12:51:36;56.03;;;38.67;;
27925;SDS011;15267;47.838;12.128;2024-02-28T12:54:02;52.78;;;36.65;;
27925;SDS011;15267;47.838;12.128;2024-02-28T12:56:28;57.35;;;40.00;;
27925;SDS011;15267;47.838;12.128;2024-02-28T12:58:54;56.85;;;39.58;;
27925;SDS011;15267;47.838;12.128;2024-02-28T13:01:20;59.42;;;39.95;;
27925;SDS011;15267;47.838;12.128;2024-02-28T13:03:46;60.30;;;41.72;;
27925;SDS011;15267;47.838;12.128;2024-02-28T13:06:13;58.67;;;38.72;;
27925;SDS011;15267;47.838;12.128;2024-02-28T13:08:40;54.75;;;38.38;;
27925;SDS011;15267;47.838;12.128;2024-02-28T13:11:06;58.85;;;40.65;;
27925;SDS011;15267;47.838;12.128;2024-02-28T13:13:33;59.10;;;40.30;;
27925;SDS011;15267;47.838;12.128;2024-02-28T13:15:59;59.72;;;41.30;;
27925;SDS011;15267;47.838;12.128;2024-02-28T13:18:25;57.30;;;39.13;;
27925;SDS011;15267;47.838;12.128;2024-02-28T13:21:01;60.00;;;40.97;;
27925;SDS011;15267;47.838;12.128;2024-02-28T13:23:39;56.85;;;39.80;;
27925;SDS011;15267;47.838;12.128;2024-02-28T13:26:05;61.17;;;41.13;;
27925;SDS011;15267;47.838;12.128;2024-02-28T13:28:32;60.72;;;40.05;;
27925;SDS011;15267;47.838;12.128;2024-02-28T13:31:01;59.60;;;40.00;;
27925;SDS011;15267;47.838;12.128;2024-02-28T13:33:29;61.00;;;40.15;;
27925;SDS011;15267;47.838;12.128;2024-02-28T13:36:06;58.92;;;40.25;;
27925;SDS011;15267;47.838;12.128;2024-02-28T13:38:32;56.20;;;37.80;;
27925;SDS011;15267;47.838;12.128;2024-02-28T13:41:02;56.38;;;38.17;;
27925;SDS011;15267;47.838;12.128;2024-02-28T13:43:28;59.50;;;40.25;;
27925;SDS011;15267;47.838;12.128;2024-02-28T13:45:54;62.45;;;40.00;;
27925;SDS011;15267;47.838;12.128;2024-02-28T13:48:25;62.33;;;41.83;;
27925;SDS011;15267;47.838;12.128;2024-02-28T13:50:52;59.97;;;40.40;;
27925;SDS011;15267;47.838;12.128;2024-02-28T13:53:18;57.90;;;39.40;;
27925;SDS011;15267;47.838;12.128;2024-02-28T13:55:44;62.67;;;40.80;;
27925;SDS011;15267;47.838;12.128;2024-02-28T13:58:16;74.05;;;45.20;;
27925;SDS011;15267;47.838;12.128;2024-02-28T14:01:07;76.28;;;47.83;;
27925;SDS011;15267;47.838;12.128;2024-02-28T14:03:33;85.55;;;48.30;;
27925;SDS011;15267;47.838;12.128;2024-02-28T14:05:59;67.78;;;44.88;;
27925;SDS011;15267;47.838;12.128;2024-02-28T14:08:25;64.15;;;41.15;;